Time;durP1;ratioP1;P1;durP2;ratioP2;P2;SDS_P1;SDS_P2;PMS_P1;PMS_P2;Temp;Humidity;BMP_temperature;BMP_pressure;BME280_temperature;BME280_humidity;BME280_pressure;Samples;Min_cycle;Max_cycle;Signal;HPM_P1;HPM_P2
2022/01/18 00:01:14;;;;;;;18.42;13.93;;;10.50;99.90;;;;;;5087276;28;20041;-58
2022/01/18 00:03:43;;;;;;;18.52;12.70;;;10.50;99.90;;;;;;5076066;28;20044;-59
2022/01/18 00:06:10;;;;;;;15.82;10.80;;;10.50;99.90;;;;;;5087245;28;20482;-59
2022/01/18 00:08:38;;;;;;;17.48;12.43;;;10.50;99.90;;;;;;5081303;28;20494;-59
2022/01/18 00:11:06;;;;;;;20.88;12.45;;;10.50;99.90;;;;;;5084417;28;20036;-59
2022/01/18 00:13:45;;;;;;;24.00;12.35;;;10.50;99.90;;;;;;5089959;28;20048;-59
2022/01/18 00:16:30;;;;;;;17.13;11.27;;;10.50;99.90;;;;;;5081810;28;20097;-59
2022/01/18 00:19:07;;;;;;;19.05;12.18;;;10.50;99.90;;;;;;5084197;28;20044;-59
2022/01/18 00:24:12;;;;;;;18.70;11.18;;;10.50;99.90;;;;;;5078570;28;20044;-59
2022/01/18 00:26:40;;;;;;;19.33;10.98;;;10.50;99.90;;;;;;5085825;28;20055;-60
2022/01/18 00:29:11;;;;;;;23.33;12.10;;;10.50;99.90;;;;;;5082421;28;20038;-59
2022/01/18 00:34:29;;;;;;;15.43;11.25;;;10.40;99.90;;;;;;5088475;28;20501;-59
2022/01/18 00:39:44;;;;;;;26.40;13.75;;;10.50;99.90;;;;;;5091075;28;20073;-60
2022/01/18 00:42:12;;;;;;;17.92;11.10;;;10.50;99.90;;;;;;5084749;28;20048;-59
2022/01/18 00:44:40;;;;;;;20.23;11.18;;;10.40;99.90;;;;;;5090356;28;20037;-59
2022/01/18 00:47:07;;;;;;;17.67;11.07;;;10.40;99.90;;;;;;5083433;28;20127;-59
2022/01/18 00:49:41;;;;;;;19.95;12.20;;;10.40;99.90;;;;;;5082683;28;20037;-59
2022/01/18 00:52:09;;;;;;;19.30;10.50;;;10.40;99.90;;;;;;5081792;28;20048;-59
2022/01/18 00:54:42;;;;;;;18.65;12.20;;;10.40;99.90;;;;;;5087875;28;20058;-59
2022/01/18 00:57:09;;;;;;;19.88;12.55;;;10.40;99.90;;;;;;5061398;28;20067;-60
2022/01/18 00:59:40;;;;;;;16.98;10.15;;;10.40;99.90;;;;;;5092527;28;20051;-59
2022/01/18 01:02:09;;;;;;;18.70;11.50;;;10.40;99.90;;;;;;5081106;28;20063;-60
2022/01/18 01:04:41;;;;;;;16.85;11.50;;;10.30;99.90;;;;;;5092046;28;20402;-58
2022/01/18 01:07:09;;;;;;;19.20;9.57;;;10.30;99.90;;;;;;5081320;28;20388;-59
2022/01/18 01:09:37;;;;;;;16.48;10.55;;;10.30;99.90;;;;;;5089166;28;20048;-59
2022/01/18 01:12:06;;;;;;;16.73;11.63;;;10.30;99.90;;;;;;5081155;28;20158;-60
2022/01/18 01:14:36;;;;;;;15.75;10.68;;;10.30;99.90;;;;;;5092772;28;20051;-59
2022/01/18 01:17:20;;;;;;;18.00;9.98;;;10.30;99.90;;;;;;5080265;28;20036;-59
2022/01/18 01:44:36;;;;;;;16.02;9.90;;;10.10;99.90;;;;;;5094381;28;20036;-59
2022/01/18 01:46:55;;;;;;;14.68;9.88;;;10.10;99.90;;;;;;5094281;28;20051;-58
2022/01/18 01:49:25;;;;;;;20.10;12.50;;;10.10;99.90;;;;;;5094425;28;20050;-59
2022/01/18 01:51:53;;;;;;;16.90;10.93;;;10.10;99.90;;;;;;5094392;28;20442;-59
2022/01/18 01:54:20;;;;;;;13.45;10.25;;;10.00;99.90;;;;;;5094133;28;20040;-59
2022/01/18 01:56:48;;;;;;;15.82;10.43;;;10.00;99.90;;;;;;5094317;28;20089;-59
2022/01/18 01:59:15;;;;;;;16.92;10.88;;;10.10;99.90;;;;;;5093069;28;20162;-59
2022/01/18 02:01:49;;;;;;;19.23;12.13;;;10.10;99.90;;;;;;5094050;28;20077;-59
2022/01/18 02:04:17;;;;;;;18.27;10.77;;;10.00;99.90;;;;;;5094137;28;20047;-59
2022/01/18 02:06:44;;;;;;;18.10;10.52;;;10.00;99.90;;;;;;5094260;28;20051;-59
2022/01/18 02:09:13;;;;;;;20.00;10.18;;;10.00;99.90;;;;;;5093490;28;20128;-58
2022/01/18 02:11:41;;;;;;;17.65;10.63;;;10.00;99.90;;;;;;5093174;28;20058;-59
2022/01/18 02:14:14;;;;;;;18.38;10.52;;;10.00;99.90;;;;;;5092821;28;20544;-59
2022/01/18 02:22:15;;;;;;;18.67;12.27;;;10.00;99.90;;;;;;5093976;28;20071;-58
2022/01/18 02:24:43;;;;;;;16.85;11.07;;;10.00;99.90;;;;;;5093772;28;20036;-58
2022/01/18 02:27:11;;;;;;;17.42;11.50;;;9.90;99.90;;;;;;5092496;28;20559;-59
2022/01/18 02:29:38;;;;;;;22.20;12.88;;;9.90;99.90;;;;;;5093778;28;20044;-59
2022/01/18 02:32:08;;;;;;;24.23;11.98;;;9.90;99.90;;;;;;5093711;28;20557;-59
2022/01/18 02:34:35;;;;;;;22.92;12.82;;;9.90;99.90;;;;;;5093857;28;20043;-59
2022/01/18 02:37:04;;;;;;;19.05;12.27;;;9.90;99.90;;;;;;5059547;28;20080;-59
2022/01/18 02:39:32;;;;;;;22.13;13.70;;;9.90;99.90;;;;;;5093672;28;20064;-59
2022/01/18 02:42:03;;;;;;;18.73;12.75;;;9.80;99.90;;;;;;5093779;28;20472;-59
2022/01/18 02:44:32;;;;;;;18.92;11.55;;;9.80;99.90;;;;;;5093506;28;20044;-59
2022/01/18 02:47:00;;;;;;;20.63;13.07;;;9.80;99.90;;;;;;5092197;28;20047;-59
2022/01/18 02:49:29;;;;;;;23.25;14.45;;;9.90;99.90;;;;;;5093712;28;20089;-59
2022/01/18 02:51:57;;;;;;;20.42;13.73;;;9.80;99.90;;;;;;5093685;28;20071;-59
2022/01/18 02:54:25;;;;;;;25.42;13.80;;;9.80;99.90;;;;;;5091702;28;20399;-59
2022/01/18 02:56:59;;;;;;;24.85;15.10;;;9.90;99.90;;;;;;5092565;28;20466;-59
2022/01/18 02:59:48;;;;;;;29.30;14.85;;;9.90;99.90;;;;;;5093411;28;20482;-59
2022/01/18 03:05:07;;;;;;;24.10;15.35;;;9.80;99.90;;;;;;5093496;28;20044;-59
2022/01/18 03:07:35;;;;;;;31.40;16.08;;;9.90;99.90;;;;;;5075613;28;20494;-59
2022/01/18 03:10:04;;;;;;;25.67;16.08;;;9.90;99.90;;;;;;5075600;28;20052;-59
2022/01/18 03:12:32;;;;;;;26.45;14.88;;;9.80;99.90;;;;;;5092433;28;20060;-59
2022/01/18 03:15:00;;;;;;;49.67;18.83;;;9.90;99.90;;;;;;5093226;28;20091;-59
2022/01/18 03:17:27;;;;;;;23.17;15.48;;;9.90;99.90;;;;;;5093409;28;20122;-59
2022/01/18 03:19:55;;;;;;;25.38;15.55;;;9.90;99.90;;;;;;5093354;28;20067;-59
2022/01/18 03:22:23;;;;;;;22.63;14.20;;;9.90;99.90;;;;;;5077118;28;20050;-59
2022/01/18 03:25:03;;;;;;;23.42;15.32;;;9.90;99.90;;;;;;5096935;28;20595;-59
2022/01/18 03:30:16;;;;;;;25.27;14.88;;;9.90;99.90;;;;;;5082048;28;20062;-59
2022/01/18 03:32:43;;;;;;;29.55;15.63;;;9.90;99.90;;;;;;5097091;28;20127;-59
2022/01/18 03:35:11;;;;;;;25.42;17.17;;;9.90;99.90;;;;;;5095886;28;20059;-59
2022/01/18 03:37:39;;;;;;;22.50;15.68;;;9.90;99.90;;;;;;5096862;28;20424;-59
2022/01/18 03:40:08;;;;;;;27.90;15.95;;;9.90;99.90;;;;;;5095765;28;20078;-59
2022/01/18 03:42:42;;;;;;;28.02;16.55;;;10.00;99.90;;;;;;5096902;28;20047;-59
2022/01/18 03:45:16;;;;;;;21.08;15.02;;;10.00;99.90;;;;;;5097015;28;20127;-59
2022/01/18 03:47:45;;;;;;;31.63;17.27;;;9.90;99.90;;;;;;5095589;28;20052;-59
2022/01/18 03:50:15;;;;;;;23.92;15.88;;;9.90;99.90;;;;;;5095607;28;20044;-59
2022/01/18 03:52:45;;;;;;;25.98;15.68;;;9.90;99.90;;;;;;5095856;28;20044;-59
2022/01/18 03:55:16;;;;;;;25.85;15.23;;;9.90;99.90;;;;;;5096725;28;20466;-59
2022/01/18 03:57:43;;;;;;;23.33;15.25;;;9.90;99.90;;;;;;5096676;28;20048;-59
2022/01/18 04:00:17;;;;;;;29.60;17.17;;;10.00;99.90;;;;;;5096420;28;20044;-59
2022/01/18 04:02:45;;;;;;;23.58;15.82;;;9.90;99.90;;;;;;5095557;28;20615;-59
2022/01/18 04:05:15;;;;;;;24.63;15.77;;;9.90;99.90;;;;;;5078802;28;20043;-59
2022/01/18 04:07:43;;;;;;;30.08;17.33;;;9.90;99.90;;;;;;5078648;28;20044;-59
2022/01/18 04:10:11;;;;;;;29.48;17.15;;;9.80;99.90;;;;;;5095184;28;20039;-59
2022/01/18 04:12:40;;;;;;;29.52;17.20;;;9.80;99.90;;;;;;5096358;28;20051;-59
2022/01/18 04:15:11;;;;;;;26.92;17.17;;;9.70;99.90;;;;;;5096155;28;20048;-59
2022/01/18 04:26:03;;;;;;;29.40;15.77;;;9.80;99.90;;;;;;5096213;28;20130;-59
2022/01/18 04:28:38;;;;;;;25.27;15.45;;;9.80;99.90;;;;;;5096268;28;20083;-59
2022/01/18 04:31:07;;;;;;;26.33;16.30;;;9.80;99.90;;;;;;5095096;28;20052;-59
2022/01/18 04:33:36;;;;;;;33.38;19.05;;;9.80;99.90;;;;;;5095636;28;20123;-59
2022/01/18 04:36:06;;;;;;;30.30;18.63;;;9.80;99.90;;;;;;5095741;28;20087;-59
2022/01/18 04:38:35;;;;;;;31.80;18.00;;;9.80;99.90;;;;;;5095767;28;20044;-59
2022/01/18 04:41:06;;;;;;;25.73;15.77;;;9.80;99.90;;;;;;5095592;28;20143;-59
2022/01/18 04:48:52;;;;;;;28.80;18.08;;;9.80;99.90;;;;;;5095759;28;20113;-59
2022/01/18 04:51:20;;;;;;;27.90;15.23;;;9.80;99.90;;;;;;5094408;28;20071;-59
2022/01/18 04:53:54;;;;;;;24.27;15.10;;;9.80;99.90;;;;;;5095660;28;20043;-59
2022/01/18 04:59:18;;;;;;;25.15;14.35;;;9.80;99.90;;;;;;5094528;28;20134;-59
2022/01/18 05:01:50;;;;;;;27.23;15.20;;;9.80;99.90;;;;;;5094146;28;20055;-59
2022/01/18 05:04:18;;;;;;;24.08;14.10;;;9.90;99.90;;;;;;5095201;28;20042;-59
2022/01/18 05:06:46;;;;;;;23.23;13.85;;;9.90;99.90;;;;;;5077134;28;20052;-59
2022/01/18 05:09:13;;;;;;;22.40;14.68;;;9.80;99.90;;;;;;5094146;28;20047;-59
2022/01/18 05:12:03;;;;;;;21.48;14.40;;;9.80;99.90;;;;;;5094987;28;20075;-59
2022/01/18 05:14:34;;;;;;;25.38;14.48;;;9.80;99.90;;;;;;5093998;28;20151;-59
2022/01/18 05:17:11;;;;;;;23.42;13.23;;;9.80;99.90;;;;;;5095074;28;20040;-59
2022/01/18 05:24:34;;;;;;;15.75;10.65;;;9.80;99.90;;;;;;5093611;28;20423;-59
2022/01/18 05:27:03;;;;;;;16.42;9.32;;;9.80;99.90;;;;;;5093826;28;20069;-59
2022/01/18 05:29:31;;;;;;;15.63;9.35;;;9.80;99.90;;;;;;5094640;28;20040;-59
2022/01/18 05:31:58;;;;;;;15.32;8.98;;;9.80;99.90;;;;;;5093474;28;20406;-59
2022/01/18 05:34:26;;;;;;;8.80;5.43;;;9.70;99.90;;;;;;5094443;28;20044;-59
2022/01/18 05:36:53;;;;;;;5.80;3.40;;;9.70;99.90;;;;;;5094650;28;20048;-59
2022/01/18 05:39:21;;;;;;;4.45;2.30;;;9.70;99.90;;;;;;5094493;28;20052;-59
2022/01/18 05:41:49;;;;;;;6.43;1.50;;;9.70;99.90;;;;;;5093348;28;20039;-59
2022/01/18 05:44:17;;;;;;;4.40;2.15;;;9.80;98.70;;;;;;5093672;28;20051;-59
2022/01/18 05:46:44;;;;;;;4.07;1.52;;;9.80;98.30;;;;;;5093364;28;20035;-59
2022/01/18 05:49:12;;;;;;;3.20;1.58;;;9.90;97.50;;;;;;5094198;28;20466;-59
2022/01/18 05:51:41;;;;;;;11.95;2.90;;;10.00;96.90;;;;;;5076539;28;20050;-59
2022/01/18 05:54:09;;;;;;;5.47;2.22;;;10.00;96.40;;;;;;5093159;28;20062;-58
2022/01/18 05:56:37;;;;;;;6.88;2.22;;;10.10;95.70;;;;;;5093104;28;20075;-59
2022/01/18 05:59:06;;;;;;;5.03;2.78;;;10.10;95.50;;;;;;5094419;28;20044;-59
2022/01/18 06:01:37;;;;;;;3.65;1.98;;;10.10;95.30;;;;;;5092803;28;20391;-59
2022/01/18 06:04:15;;;;;;;4.82;2.10;;;10.20;94.90;;;;;;5090158;28;20048;-60
2022/01/18 06:06:53;;;;;;;4.32;2.05;;;10.30;95.00;;;;;;5087525;28;20051;-59
2022/01/18 06:09:22;;;;;;;2.50;1.50;;;10.30;95.00;;;;;;5075728;28;20040;-59
2022/01/18 06:11:50;;;;;;;3.90;2.10;;;10.40;95.10;;;;;;5083156;28;20052;-59
2022/01/18 06:14:18;;;;;;;4.28;1.70;;;10.40;95.00;;;;;;5088391;28;20032;-59
2022/01/18 06:16:46;;;;;;;3.90;1.90;;;10.40;95.10;;;;;;5081740;28;20067;-59
2022/01/18 06:19:14;;;;;;;2.80;1.67;;;10.40;95.20;;;;;;5084561;28;20453;-59
2022/01/18 06:21:42;;;;;;;4.10;1.80;;;10.40;95.10;;;;;;5080717;28;20433;-59
2022/01/18 06:24:11;;;;;;;2.45;1.33;;;10.40;95.30;;;;;;5090759;28;20482;-59
2022/01/18 06:26:49;;;;;;;4.40;1.65;;;10.50;95.40;;;;;;5077120;28;20058;-59
2022/01/18 06:29:17;;;;;;;6.57;2.30;;;10.60;95.50;;;;;;5079613;28;20049;-59
2022/01/18 06:31:45;;;;;;;5.47;1.90;;;10.70;95.50;;;;;;5084712;28;20037;-59
2022/01/18 06:34:14;;;;;;;4.18;1.98;;;11.00;95.30;;;;;;5071515;28;20036;-59
2022/01/18 06:36:42;;;;;;;3.95;1.77;;;11.20;94.90;;;;;;5084028;28;20064;-59
2022/01/18 06:39:10;;;;;;;7.43;1.85;;;11.60;94.60;;;;;;5083671;28;20093;-59
2022/01/18 06:41:38;;;;;;;5.55;1.83;;;12.30;93.90;;;;;;5080488;28;20040;-59
2022/01/18 06:44:06;;;;;;;5.95;1.92;;;13.20;92.70;;;;;;5079741;28;20047;-59
2022/01/18 06:46:33;;;;;;;3.58;1.83;;;14.20;91.30;;;;;;5080138;28;20041;-59
2022/01/18 06:49:01;;;;;;;6.70;2.42;;;15.10;90.00;;;;;;5079901;28;20063;-59
2022/01/18 06:51:28;;;;;;;2.95;1.55;;;16.00;87.30;;;;;;5081668;28;20058;-59
2022/01/18 06:53:56;;;;;;;4.25;2.58;;;16.80;84.20;;;;;;5079508;28;20047;-59
2022/01/18 06:56:26;;;;;;;3.75;1.70;;;17.50;81.30;;;;;;5081897;28;20157;-59
2022/01/18 06:58:55;;;;;;;3.38;1.65;;;18.00;78.50;;;;;;5095398;28;20100;-59
2022/01/18 07:01:23;;;;;;;7.28;1.40;;;18.40;75.80;;;;;;5095748;28;20044;-59
2022/01/18 07:03:50;;;;;;;3.22;1.50;;;18.90;74.50;;;;;;5086837;28;20051;-60
2022/01/18 07:06:18;;;;;;;2.30;1.40;;;19.20;73.30;;;;;;5095941;28;20048;-59
2022/01/18 07:08:46;;;;;;;4.75;2.47;;;19.60;72.60;;;;;;5097348;28;20504;-59
2022/01/18 07:11:13;;;;;;;4.68;2.03;;;20.10;72.90;;;;;;5096201;28;20127;-59
2022/01/18 07:13:41;;;;;;;6.97;2.08;;;20.80;70.10;;;;;;5097557;28;20086;-59
2022/01/18 07:16:08;;;;;;;2.95;1.65;;;21.10;69.30;;;;;;5097543;28;20036;-59
2022/01/18 07:18:36;;;;;;;4.53;1.70;;;21.60;67.20;;;;;;5097454;28;20566;-59
2022/01/18 07:21:04;;;;;;;6.85;2.25;;;22.00;66.00;;;;;;5097438;28;20047;-59
2022/01/18 07:23:31;;;;;;;2.15;1.42;;;22.10;65.00;;;;;;5097262;28;20502;-59
2022/01/18 07:26:02;;;;;;;4.93;1.70;;;22.10;64.20;;;;;;5097229;28;20036;-59
2022/01/18 07:28:30;;;;;;;2.60;1.80;;;22.40;63.20;;;;;;5097248;28;20382;-59
2022/01/18 07:30:58;;;;;;;3.53;1.70;;;22.60;62.70;;;;;;5096076;28;20126;-59
2022/01/18 07:33:26;;;;;;;4.10;2.08;;;22.80;62.50;;;;;;5097114;28;20097;-59
2022/01/18 07:35:53;;;;;;;3.80;1.88;;;22.80;61.90;;;;;;5096950;28;20055;-59
2022/01/18 07:38:21;;;;;;;11.45;5.57;;;23.00;62.10;;;;;;5096886;28;20502;-59
2022/01/18 07:40:49;;;;;;;6.53;3.78;;;22.80;62.00;;;;;;5096858;28;20074;-59
2022/01/18 07:43:19;;;;;;;8.45;4.28;;;22.70;62.00;;;;;;5096805;28;20490;-59
2022/01/18 07:45:48;;;;;;;11.02;4.93;;;22.30;62.30;;;;;;5096721;28;20378;-59
2022/01/18 07:48:21;;;;;;;11.90;5.53;;;22.10;62.40;;;;;;5095520;28;20368;-59
2022/01/18 07:50:51;;;;;;;7.60;2.78;;;21.80;62.80;;;;;;5095478;28;20062;-59
2022/01/18 07:53:19;;;;;;;3.75;1.80;;;21.60;62.70;;;;;;5096746;28;20394;-59
2022/01/18 07:55:47;;;;;;;2.53;1.23;;;20.80;62.30;;;;;;5095588;28;20105;-59
2022/01/18 07:58:15;;;;;;;3.25;1.48;;;20.20;62.60;;;;;;5096742;28;20093;-59
2022/01/18 08:00:43;;;;;;;4.97;1.90;;;19.70;63.30;;;;;;5096440;28;20127;-59
2022/01/18 08:03:11;;;;;;;2.65;1.83;;;19.50;63.70;;;;;;5095388;28;20032;-59
2022/01/18 08:05:39;;;;;;;3.35;1.33;;;19.40;64.10;;;;;;5096236;28;20044;-59
2022/01/18 08:08:09;;;;;;;2.83;1.85;;;19.20;64.70;;;;;;5094718;28;20101;-59
2022/01/18 08:10:37;;;;;;;4.72;1.75;;;19.00;65.40;;;;;;5096542;28;20047;-59
2022/01/18 08:13:05;;;;;;;4.50;1.65;;;18.90;66.10;;;;;;5096331;28;20079;-59
2022/01/18 08:15:38;;;;;;;7.10;2.30;;;18.70;64.30;;;;;;5095069;28;20089;-59
2022/01/18 08:18:12;;;;;;;2.72;1.00;;;18.70;64.20;;;;;;5095146;28;20044;-59
2022/01/18 08:20:40;;;;;;;2.72;1.40;;;18.40;61.80;;;;;;5096331;28;20044;-59
2022/01/18 08:23:08;;;;;;;4.15;2.13;;;18.20;62.10;;;;;;5094947;28;20086;-59
2022/01/18 08:25:39;;;;;;;4.88;1.80;;;17.90;62.70;;;;;;5094894;28;20040;-59
2022/01/18 08:28:06;;;;;;;3.67;1.20;;;17.50;63.00;;;;;;5096214;28;20040;-59
2022/01/18 08:30:34;;;;;;;4.07;1.52;;;17.60;63.50;;;;;;5094949;28;20048;-59
2022/01/18 08:33:01;;;;;;;4.05;1.90;;;17.70;63.80;;;;;;5094933;28;20533;-59
2022/01/18 08:35:31;;;;;;;3.13;1.60;;;17.70;64.50;;;;;;5094895;28;20040;-59
2022/01/18 08:37:59;;;;;;;3.75;2.10;;;17.60;63.80;;;;;;5096026;28;20044;-59
2022/01/18 08:40:26;;;;;;;5.30;1.70;;;17.30;63.30;;;;;;5094453;28;20135;-59
2022/01/18 08:42:54;;;;;;;3.30;1.35;;;17.00;63.30;;;;;;5095728;28;20156;-59
2022/01/18 08:45:22;;;;;;;3.40;2.00;;;16.40;63.40;;;;;;5095523;28;20036;-59
2022/01/18 08:47:50;;;;;;;2.45;1.20;;;16.20;62.60;;;;;;5096027;28;20135;-59
2022/01/18 08:50:19;;;;;;;4.68;1.40;;;15.80;62.90;;;;;;5095880;28;20040;-59
2022/01/18 08:52:50;;;;;;;4.15;1.92;;;15.70;63.10;;;;;;5095747;28;20048;-59
2022/01/18 08:55:21;;;;;;;4.38;1.23;;;15.60;63.60;;;;;;5077399;28;20437;-59
2022/01/18 08:57:49;;;;;;;9.73;2.22;;;15.60;63.30;;;;;;5094375;28;20097;-59
2022/01/18 09:00:18;;;;;;;2.05;1.17;;;15.40;63.40;;;;;;5095311;28;20124;-59
2022/01/18 09:02:46;;;;;;;4.22;1.20;;;15.50;64.10;;;;;;5095207;28;20044;-59
2022/01/18 09:05:14;;;;;;;1.98;1.00;;;15.40;63.50;;;;;;5094322;28;20148;-59
2022/01/18 09:07:42;;;;;;;3.05;1.23;;;15.30;62.50;;;;;;5094035;28;20063;-59
2022/01/18 09:10:11;;;;;;;5.57;1.58;;;15.20;61.70;;;;;;5093985;28;20055;-59
2022/01/18 09:12:39;;;;;;;3.78;1.30;;;15.20;62.60;;;;;;5095059;28;20048;-58
2022/01/18 09:15:09;;;;;;;3.05;1.08;;;15.20;61.90;;;;;;5094103;28;20048;-59
2022/01/18 09:17:38;;;;;;;3.28;1.27;;;15.30;62.30;;;;;;5095080;28;20031;-59
2022/01/18 09:20:09;;;;;;;2.30;1.20;;;15.40;63.10;;;;;;5093701;28;20074;-59
2022/01/18 09:22:39;;;;;;;4.38;1.67;;;15.40;63.50;;;;;;5094985;28;20050;-59
2022/01/18 09:25:19;;;;;;;4.07;1.13;;;15.60;63.70;;;;;;5094693;28;20036;-59
2022/01/18 09:27:47;;;;;;;4.40;1.63;;;15.60;60.80;;;;;;5095017;28;20113;-58
2022/01/18 09:30:15;;;;;;;1.63;1.10;;;15.60;62.50;;;;;;5094798;28;20448;-59
2022/01/18 09:32:44;;;;;;;2.45;1.20;;;15.60;64.80;;;;;;5094700;28;20036;-59
2022/01/18 09:35:14;;;;;;;3.53;1.23;;;15.60;63.50;;;;;;5094872;28;20127;-58
2022/01/18 09:37:43;;;;;;;4.45;1.38;;;15.50;64.00;;;;;;5094572;28;20409;-59
2022/01/18 09:40:14;;;;;;;2.47;1.20;;;15.60;65.20;;;;;;5094425;28;20504;-59
2022/01/18 09:42:44;;;;;;;6.07;1.85;;;15.50;64.30;;;;;;5094522;28;20043;-59
2022/01/18 09:45:14;;;;;;;4.13;1.48;;;15.50;64.60;;;;;;5094448;28;20044;-59
2022/01/18 09:47:45;;;;;;;3.35;1.25;;;15.70;64.70;;;;;;5094498;28;20044;-59
2022/01/18 09:50:16;;;;;;;3.08;1.50;;;15.70;64.30;;;;;;5094676;28;20169;-59
2022/01/18 09:52:51;;;;;;;4.68;1.75;;;15.70;63.50;;;;;;5093018;28;20081;-59
2022/01/18 09:55:20;;;;;;;7.18;1.63;;;15.70;61.70;;;;;;5094430;28;20039;-59
2022/01/18 09:57:47;;;;;;;3.38;1.70;;;15.70;60.70;;;;;;5094351;28;20481;-59
2022/01/18 10:00:15;;;;;;;4.18;1.80;;;15.70;60.70;;;;;;5094402;28;20032;-59
2022/01/18 10:02:43;;;;;;;5.68;1.30;;;15.70;61.50;;;;;;5094164;28;20044;-59
2022/01/18 10:05:30;;;;;;;2.20;0.82;;;15.60;61.30;;;;;;5093992;28;20048;-59
2022/01/18 10:07:59;;;;;;;2.83;1.17;;;15.70;59.80;;;;;;5093900;28;20032;-59
2022/01/18 10:10:46;;;;;;;2.17;1.33;;;15.60;59.10;;;;;;5093865;28;20051;-59
2022/01/18 10:13:17;;;;;;;2.28;1.35;;;15.60;59.40;;;;;;5094171;28;20044;-59
2022/01/18 10:16:06;;;;;;;2.88;1.42;;;15.60;59.30;;;;;;5092634;28;20724;-59
2022/01/18 10:18:52;;;;;;;6.07;2.10;;;15.60;60.00;;;;;;5093797;28;20048;-59
2022/01/18 10:21:28;;;;;;;2.25;1.33;;;15.50;60.10;;;;;;5093913;28;20047;-59
2022/01/18 10:24:11;;;;;;;7.57;1.35;;;15.60;59.80;;;;;;5092649;28;20040;-59
2022/01/18 10:26:43;;;;;;;3.45;1.63;;;15.70;58.90;;;;;;5092589;28;20044;-59
2022/01/18 10:29:12;;;;;;;4.15;1.55;;;15.80;59.30;;;;;;5093763;28;20367;-59
2022/01/18 10:31:57;;;;;;;5.25;1.95;;;15.80;59.10;;;;;;5058957;28;20112;-59
2022/01/18 10:37:01;;;;;;;5.75;1.80;;;15.60;59.60;;;;;;5092697;28;20069;-59
2022/01/18 10:39:35;;;;;;;3.63;1.70;;;15.50;60.20;;;;;;5093778;28;20407;-59
2022/01/18 10:42:19;;;;;;;5.78;1.50;;;15.70;60.50;;;;;;5093537;28;20105;-59
2022/01/18 10:44:57;;;;;;;2.60;2.00;;;15.70;60.60;;;;;;5093332;28;20560;-59
2022/01/18 10:47:26;;;;;;;6.13;2.05;;;15.70;59.80;;;;;;5093533;28;20047;-59
2022/01/18 10:49:54;;;;;;;6.78;1.40;;;15.80;60.70;;;;;;5093499;28;20040;-59
2022/01/18 10:52:28;;;;;;;2.88;1.45;;;15.70;61.20;;;;;;5093327;28;20130;-59
2022/01/18 10:55:00;;;;;;;2.95;1.67;;;15.70;62.40;;;;;;5091928;28;20082;-59
2022/01/18 10:57:30;;;;;;;2.30;1.38;;;15.70;62.50;;;;;;5093354;28;20036;-59
2022/01/18 11:00:08;;;;;;;2.85;1.30;;;15.70;61.70;;;;;;5092325;28;20055;-59
2022/01/18 11:02:41;;;;;;;6.82;1.20;;;15.70;59.70;;;;;;5093566;28;20047;-59
2022/01/18 11:05:18;;;;;;;1.80;1.00;;;15.50;58.60;;;;;;5093387;28;20032;-59
2022/01/18 11:07:48;;;;;;;2.70;1.60;;;15.50;58.60;;;;;;5093221;28;20563;-59
2022/01/18 11:10:19;;;;;;;5.38;1.48;;;15.50;58.60;;;;;;5093408;28;20071;-60
2022/01/18 11:13:07;;;;;;;2.92;1.48;;;15.50;59.40;;;;;;5093304;28;20047;-60
2022/01/18 11:15:37;;;;;;;5.55;2.20;;;15.40;57.70;;;;;;5093270;28;20052;-60
2022/01/18 11:18:14;;;;;;;3.08;1.45;;;15.30;57.60;;;;;;5093161;28;20452;-60
2022/01/18 11:20:46;;;;;;;4.60;1.55;;;15.40;58.90;;;;;;5091898;28;20047;-60
2022/01/18 11:23:15;;;;;;;5.07;1.95;;;15.60;58.10;;;;;;5092291;28;20033;-60
2022/01/18 11:25:43;;;;;;;3.08;1.58;;;15.60;58.50;;;;;;5093397;28;20043;-60
2022/01/18 11:28:13;;;;;;;5.82;2.20;;;15.60;57.50;;;;;;5075239;28;20047;-60
2022/01/18 11:30:47;;;;;;;5.22;1.80;;;15.70;57.50;;;;;;5093080;28;20044;-60
2022/01/18 11:33:19;;;;;;;2.88;1.50;;;15.80;57.60;;;;;;5091873;28;20055;-60
2022/01/18 11:35:50;;;;;;;4.45;2.28;;;15.90;59.60;;;;;;5091576;28;20052;-60
2022/01/18 11:39:03;;;;;;;4.32;2.42;;;15.80;58.40;;;;;;5091956;28;20147;-60
2022/01/18 11:41:34;;;;;;;3.45;1.70;;;15.60;58.20;;;;;;5090434;28;20060;-60
2022/01/18 11:44:17;;;;;;;3.45;1.65;;;15.70;57.20;;;;;;5095972;28;20048;-60
2022/01/18 11:46:55;;;;;;;2.30;1.30;;;15.80;57.00;;;;;;5095780;28;20052;-60
2022/01/18 11:49:29;;;;;;;4.88;2.80;;;15.70;57.50;;;;;;5095777;28;20048;-60
2022/01/18 11:52:07;;;;;;;3.80;2.13;;;15.60;61.20;;;;;;5096690;28;20076;-61
2022/01/18 11:57:21;;;;;;;5.32;2.97;;;15.60;57.80;;;;;;5096535;28;20044;-60
2022/01/18 11:59:54;;;;;;;3.90;2.58;;;15.50;58.60;;;;;;5092013;28;20066;-60
2022/01/18 12:02:39;;;;;;;4.32;2.42;;;15.40;58.50;;;;;;5088095;28;20032;-59
2022/01/18 12:05:14;;;;;;;9.55;2.92;;;15.40;57.70;;;;;;5084234;28;20449;-59
2022/01/18 12:07:44;;;;;;;6.25;2.22;;;15.40;57.50;;;;;;5086556;28;20033;-59
2022/01/18 12:10:31;;;;;;;3.35;2.03;;;15.20;57.60;;;;;;5081019;28;20388;-61
2022/01/18 12:13:10;;;;;;;3.35;1.90;;;15.10;57.40;;;;;;5092212;28;20409;-60
2022/01/18 12:15:41;;;;;;;4.15;2.08;;;15.00;57.80;;;;;;5082574;28;20055;-60
2022/01/18 12:18:20;;;;;;;4.15;2.10;;;15.10;59.20;;;;;;5091857;28;20387;-61
2022/01/18 12:20:50;;;;;;;4.03;1.58;;;15.00;57.80;;;;;;5083222;28;20109;-62
2022/01/18 12:23:21;;;;;;;5.55;3.00;;;15.00;57.30;;;;;;5090383;28;20040;-60
2022/01/18 12:26:04;;;;;;;4.95;2.33;;;15.00;56.80;;;;;;5081682;28;20402;-61
2022/01/18 12:34:31;;;;;;;6.72;2.75;;;15.00;58.20;;;;;;5083647;28;20036;-60
2022/01/18 12:37:08;;;;;;;4.68;2.25;;;15.10;59.00;;;;;;5076199;28;20040;-60
2022/01/18 12:39:54;;;;;;;3.88;1.70;;;15.10;57.90;;;;;;5086916;28;20049;-60
2022/01/18 12:45:05;;;;;;;2.67;1.58;;;14.90;58.30;;;;;;5085372;28;20045;-60
2022/01/18 12:47:35;;;;;;;3.92;1.92;;;14.90;58.90;;;;;;5085582;28;20036;-61
2022/01/18 12:50:08;;;;;;;3.83;1.73;;;15.00;59.50;;;;;;5081701;28;20047;-60
2022/01/18 12:52:54;;;;;;;3.28;1.85;;;15.00;59.30;;;;;;5095337;28;20048;-60
2022/01/18 12:55:41;;;;;;;4.13;1.77;;;15.00;59.10;;;;;;5095469;28;20040;-60
2022/01/18 12:58:19;;;;;;;3.58;1.35;;;14.90;60.00;;;;;;5094253;28;20036;-60
2022/01/18 13:00:57;;;;;;;5.63;1.40;;;15.00;60.40;;;;;;5094365;28;20039;-60
2022/01/18 13:03:35;;;;;;;3.15;1.40;;;14.90;59.90;;;;;;5095156;28;20551;-60
2022/01/18 13:06:05;;;;;;;2.05;1.30;;;14.90;59.50;;;;;;5060866;28;20082;-60
2022/01/18 13:08:42;;;;;;;7.07;1.80;;;14.90;60.00;;;;;;5094361;28;20139;-60
2022/01/18 13:11:11;;;;;;;4.47;2.25;;;14.90;60.00;;;;;;5094060;28;20048;-60
2022/01/18 13:13:39;;;;;;;4.45;1.63;;;14.80;60.20;;;;;;5092935;28;20044;-60
2022/01/18 13:27:10;;;;;;;3.58;2.20;;;14.40;61.70;;;;;;5095051;28;20076;-60
2022/01/18 13:29:38;;;;;;;6.00;2.33;;;14.30;62.20;;;;;;5094704;28;20379;-60
2022/01/18 13:32:17;;;;;;;3.92;2.25;;;14.40;63.00;;;;;;5077005;28;20040;-60
2022/01/18 13:34:50;;;;;;;3.83;2.17;;;14.20;62.60;;;;;;5093748;28;20044;-60
2022/01/18 13:37:22;;;;;;;4.25;2.30;;;14.30;63.20;;;;;;5094891;28;20066;-61
2022/01/18 13:39:52;;;;;;;4.95;1.77;;;14.30;63.80;;;;;;5093374;28;20048;-60
2022/01/18 13:42:29;;;;;;;4.28;1.98;;;14.20;63.30;;;;;;5094616;28;20048;-60
2022/01/18 13:45:11;;;;;;;3.15;1.50;;;14.20;63.30;;;;;;5094460;28;20036;-60
2022/01/18 13:48:00;;;;;;;4.85;1.55;;;14.20;63.40;;;;;;5094417;28;20125;-61
2022/01/18 13:50:30;;;;;;;5.38;1.27;;;14.10;63.80;;;;;;5094558;28;20486;-61
2022/01/18 13:53:06;;;;;;;2.42;1.27;;;14.10;63.10;;;;;;5094579;28;20126;-60
2022/01/18 13:55:36;;;;;;;4.13;1.63;;;14.00;63.20;;;;;;5076623;28;20067;-60
2022/01/18 13:58:05;;;;;;;3.00;1.90;;;13.90;63.50;;;;;;5093402;28;20127;-60
2022/01/18 14:00:33;;;;;;;3.80;1.60;;;13.80;63.00;;;;;;5094467;28;20048;-60
2022/01/18 14:03:01;;;;;;;3.08;1.30;;;13.70;62.70;;;;;;5094252;28;20052;-61
2022/01/18 14:05:29;;;;;;;3.45;1.52;;;13.70;64.20;;;;;;5093527;28;20066;-60
2022/01/18 14:08:04;;;;;;;2.42;1.63;;;13.80;64.60;;;;;;5094137;28;20044;-60
2022/01/18 14:10:32;;;;;;;4.38;2.00;;;13.80;66.90;;;;;;5075863;28;20509;-60
2022/01/18 14:13:00;;;;;;;4.57;1.50;;;13.80;66.30;;;;;;5093088;28;20087;-61
2022/01/18 14:15:38;;;;;;;2.80;1.10;;;13.80;65.00;;;;;;5076273;28;20478;-61
2022/01/18 14:18:07;;;;;;;3.08;1.42;;;13.80;65.20;;;;;;5075816;28;20047;-61
2022/01/18 14:20:36;;;;;;;2.83;1.20;;;13.70;65.40;;;;;;5075682;28;20071;-61
2022/01/18 14:23:04;;;;;;;4.45;1.23;;;13.60;65.50;;;;;;5093689;28;20033;-60
2022/01/18 14:25:32;;;;;;;5.50;1.38;;;13.60;65.70;;;;;;5092764;28;20494;-60
2022/01/18 14:28:11;;;;;;;4.15;1.83;;;13.60;65.60;;;;;;5092758;28;20391;-60
2022/01/18 14:30:42;;;;;;;5.75;2.40;;;13.40;66.00;;;;;;5093869;28;20044;-61
2022/01/18 14:33:13;;;;;;;3.72;1.92;;;13.30;65.70;;;;;;5093588;28;20062;-61